Time;durP1;ratioP1;P1;durP2;ratioP2;P2;SDS_P1;SDS_P2;PMS_P1;PMS_P2;Temp;Humidity;BMP_temperature;BMP_pressure;BME280_temperature;BME280_humidity;BME280_pressure;Samples;Min_cycle;Max_cycle;Signal;HPM_P1;HPM_P2
2023/05/11 00:00:30;;;;;;;11.27;1.83;;;16.50;91.40;;;;;;7403606;19;19925;-72
2023/05/11 00:02:56;;;;;;;12.00;2.00;;;16.50;91.40;;;;;;7403080;19;19949;-72
2023/05/11 00:05:22;;;;;;;11.75;2.38;;;16.60;91.50;;;;;;7402554;19;20346;-71
2023/05/11 00:07:48;;;;;;;10.45;2.28;;;16.50;91.50;;;;;;7405663;19;19913;-72
2023/05/11 00:10:13;;;;;;;14.02;2.10;;;16.60;91.60;;;;;;7400245;19;19914;-71
2023/05/11 00:12:39;;;;;;;12.80;2.63;;;16.60;91.60;;;;;;7404983;19;20336;-73
2023/05/11 00:15:05;;;;;;;12.27;2.95;;;16.60;91.70;;;;;;7372158;19;19978;-72
2023/05/11 00:17:31;;;;;;;11.23;1.98;;;16.60;91.60;;;;;;7402461;19;19946;-72
2023/05/11 00:19:57;;;;;;;10.95;1.83;;;16.60;91.60;;;;;;7401445;19;19956;-72
2023/05/11 00:22:22;;;;;;;7.68;2.42;;;16.60;91.70;;;;;;7400772;19;20015;-72
2023/05/11 00:24:48;;;;;;;7.85;1.60;;;16.70;91.70;;;;;;7404579;19;19922;-72
2023/05/11 00:27:14;;;;;;;12.00;2.00;;;16.70;91.60;;;;;;7403663;19;19910;-71
2023/05/11 00:29:39;;;;;;;16.77;2.05;;;16.70;91.60;;;;;;7404378;19;19910;-72
2023/05/11 00:32:05;;;;;;;11.77;1.80;;;16.80;91.50;;;;;;7404360;19;19918;-72
2023/05/11 00:34:31;;;;;;;9.07;1.75;;;16.80;91.40;;;;;;7404528;19;19907;-72
2023/05/11 00:36:57;;;;;;;10.77;2.10;;;16.90;91.30;;;;;;7402522;19;19919;-73
2023/05/11 00:39:22;;;;;;;7.00;1.60;;;16.90;91.20;;;;;;7403091;19;19961;-72
2023/05/11 00:41:48;;;;;;;11.48;2.00;;;17.00;91.20;;;;;;7404517;19;20289;-73
2023/05/11 00:44:14;;;;;;;11.85;2.35;;;17.00;91.30;;;;;;7402323;19;19926;-72
2023/05/11 00:46:40;;;;;;;14.85;2.20;;;17.00;91.30;;;;;;7403491;19;20015;-73
2023/05/11 00:49:06;;;;;;;9.10;2.00;;;17.10;91.30;;;;;;7372601;19;19942;-72
2023/05/11 00:51:33;;;;;;;7.70;1.90;;;17.10;91.30;;;;;;7401739;19;19920;-72
2023/05/11 00:53:59;;;;;;;;;;;17.10;91.40;;;;;;7403602;19;19918;-73
2023/05/11 00:56:25;;;;;;;9.52;2.20;;;17.10;91.60;;;;;;7344466;19;20474;-72
2023/05/11 00:58:51;;;;;;;12.30;2.00;;;17.10;92.70;;;;;;7404317;19;19926;-73
2023/05/11 01:01:17;;;;;;;11.90;2.22;;;16.80;93.40;;;;;;7398463;19;19929;-73
2023/05/11 01:03:44;;;;;;;14.50;2.80;;;16.60;94.50;;;;;;7404272;19;19907;-72
2023/05/11 01:06:21;;;;;;;12.05;1.55;;;16.40;95.30;;;;;;7400836;19;20269;-72
2023/05/11 01:09:08;;;;;;;9.32;1.83;;;16.30;96.40;;;;;;7404972;19;19926;-71
2023/05/11 01:11:48;;;;;;;11.27;2.33;;;16.20;96.90;;;;;;7401744;19;19975;-73
2023/05/11 01:14:32;;;;;;;12.68;2.25;;;16.10;98.10;;;;;;7400876;19;20014;-72
2023/05/11 01:17:04;;;;;;;12.48;1.88;;;16.00;99.00;;;;;;7400368;19;19922;-73
2023/05/11 01:19:45;;;;;;;10.00;2.47;;;16.00;99.90;;;;;;7397930;19;20255;-73
2023/05/11 01:22:48;;;;;;;10.63;2.97;;;16.00;99.90;;;;;;7400796;19;20335;-72
2023/05/11 01:25:29;;;;;;;11.43;2.15;;;16.00;99.90;;;;;;7399198;19;20093;-72
2023/05/11 01:28:09;;;;;;;10.13;2.30;;;15.90;99.90;;;;;;7401050;19;19919;-72
2023/05/11 01:30:50;;;;;;;12.50;3.03;;;15.80;99.90;;;;;;7400967;19;19950;-72
2023/05/11 01:33:20;;;;;;;10.60;2.38;;;15.80;99.90;;;;;;7397179;19;19915;-72
2023/05/11 01:35:52;;;;;;;9.68;2.22;;;15.80;99.90;;;;;;7402163;19;19930;-72
2023/05/11 01:38:23;;;;;;;11.70;2.80;;;15.70;99.90;;;;;;7401667;19;20006;-72
2023/05/11 01:40:54;;;;;;;11.80;2.75;;;15.70;99.90;;;;;;7402350;19;19914;-72
2023/05/11 01:43:24;;;;;;;11.85;2.20;;;15.70;99.90;;;;;;7398641;19;19940;-73
2023/05/11 01:45:52;;;;;;;15.30;2.75;;;15.60;99.90;;;;;;7399961;19;19955;-73
2023/05/11 01:48:22;;;;;;;11.23;2.45;;;15.60;99.90;;;;;;7399138;19;19929;-72
2023/05/11 01:50:50;;;;;;;12.38;2.40;;;15.60;99.90;;;;;;7402964;19;19922;-72
2023/05/11 01:53:17;;;;;;;9.77;1.70;;;15.50;99.90;;;;;;7400667;19;19914;-73
2023/05/11 01:55:44;;;;;;;;;;;15.50;99.70;;;;;;7403786;19;19936;-73
2023/05/11 01:58:13;;;;;;;11.18;2.72;;;15.40;99.10;;;;;;7397758;19;19914;-73
2023/05/11 02:00:42;;;;;;;10.95;2.50;;;15.40;99.10;;;;;;7400826;19;20491;-72
2023/05/11 02:03:09;;;;;;;11.57;1.83;;;15.40;98.90;;;;;;7401001;19;19917;-72
2023/05/11 02:05:38;;;;;;;11.07;2.60;;;15.50;98.80;;;;;;7401954;19;19939;-72
2023/05/11 02:08:05;;;;;;;9.10;1.90;;;15.50;98.40;;;;;;7396766;19;19950;-73
2023/05/11 02:10:33;;;;;;;6.32;2.22;;;15.60;98.00;;;;;;7402763;19;19985;-73
2023/05/11 02:13:00;;;;;;;12.55;2.08;;;15.60;97.40;;;;;;7401320;19;19970;-72
2023/05/11 02:15:27;;;;;;;12.35;2.42;;;15.60;97.20;;;;;;7400479;19;19918;-72
2023/05/11 02:17:53;;;;;;;15.07;2.53;;;15.60;97.10;;;;;;7372125;19;20306;-73
2023/05/11 02:20:19;;;;;;;10.52;1.98;;;15.60;96.90;;;;;;7400320;19;20300;-73
2023/05/11 02:22:46;;;;;;;14.73;2.28;;;15.60;96.70;;;;;;7402016;19;20437;-72
2023/05/11 02:25:13;;;;;;;13.35;2.35;;;15.60;96.40;;;;;;7398906;19;19929;-72
2023/05/11 02:27:38;;;;;;;;;;;15.70;96.00;;;;;;7404343;19;19931;-72
2023/05/11 02:30:07;;;;;;;13.82;2.65;;;15.70;95.50;;;;;;7400082;19;19918;-72
2023/05/11 02:32:37;;;;;;;9.57;2.92;;;15.70;95.50;;;;;;7399659;19;20456;-72
2023/05/11 02:35:20;;;;;;;13.05;2.30;;;15.80;95.50;;;;;;7400033;19;20571;-72
2023/05/11 02:37:48;;;;;;;11.73;2.00;;;15.80;95.40;;;;;;7375197;19;19911;-72
2023/05/11 02:40:24;;;;;;;14.75;2.45;;;15.80;95.20;;;;;;7394674;19;20269;-73
2023/05/11 02:42:55;;;;;;;15.93;3.22;;;15.70;95.20;;;;;;7397359;19;19927;-72
2023/05/11 02:45:23;;;;;;;11.77;3.00;;;15.80;95.20;;;;;;7400462;19;19938;-72
2023/05/11 02:47:54;;;;;;;11.30;1.77;;;15.70;95.10;;;;;;7400906;19;19906;-72
2023/05/11 02:50:23;;;;;;;16.25;2.20;;;15.70;95.20;;;;;;7398936;19;19922;-72
2023/05/11 02:52:52;;;;;;;12.38;2.03;;;15.70;95.30;;;;;;7400502;19;19929;-73
2023/05/11 02:55:19;;;;;;;11.57;1.92;;;15.70;95.20;;;;;;7399395;19;20345;-71
2023/05/11 02:57:45;;;;;;;;;;;15.60;95.50;;;;;;7403187;19;20208;-72
2023/05/11 03:00:12;;;;;;;11.10;2.28;;;15.60;95.50;;;;;;7397771;19;19935;-72
2023/05/11 03:02:37;;;;;;;12.52;2.75;;;15.60;95.50;;;;;;7400001;19;20238;-72
2023/05/11 03:05:04;;;;;;;9.18;2.30;;;15.60;95.50;;;;;;7401324;19;19918;-72
2023/05/11 03:07:33;;;;;;;9.05;2.50;;;15.50;95.60;;;;;;7400430;19;19925;-72
2023/05/11 03:10:01;;;;;;;13.30;2.70;;;15.40;95.90;;;;;;7400713;19;19915;-72
2023/05/11 03:12:30;;;;;;;13.10;2.25;;;15.40;96.10;;;;;;7394705;19;20012;-71
2023/05/11 03:14:58;;;;;;;12.50;2.53;;;15.30;96.30;;;;;;7398531;19;19914;-72
2023/05/11 03:17:25;;;;;;;11.82;2.72;;;15.30;96.30;;;;;;7397465;19;19965;-72
2023/05/11 03:19:53;;;;;;;15.82;2.75;;;15.40;96.20;;;;;;7400609;19;19946;-72
2023/05/11 03:22:20;;;;;;;10.73;1.95;;;15.40;96.30;;;;;;7397181;19;19929;-72
2023/05/11 03:24:46;;;;;;;13.57;2.45;;;15.40;96.20;;;;;;7400769;19;19918;-73
2023/05/11 03:27:12;;;;;;;12.40;1.85;;;15.40;96.20;;;;;;7398557;19;19938;-72
2023/05/11 03:29:41;;;;;;;14.00;2.58;;;15.40;96.30;;;;;;7397554;19;19925;-72
2023/05/11 03:32:08;;;;;;;10.07;2.65;;;15.40;96.30;;;;;;7392772;19;19914;-72
2023/05/11 03:34:34;;;;;;;11.68;2.42;;;15.40;96.40;;;;;;7394743;19;19918;-72
2023/05/11 03:37:00;;;;;;;13.65;2.72;;;15.40;96.60;;;;;;7396452;19;20374;-72
2023/05/11 03:39:30;;;;;;;11.65;2.20;;;15.30;96.60;;;;;;7397851;19;20259;-71
2023/05/11 03:41:56;;;;;;;14.85;2.30;;;15.20;96.60;;;;;;7398510;19;20652;-73
2023/05/11 03:44:23;;;;;;;14.15;2.63;;;15.20;96.00;;;;;;7398117;19;20676;-72
2023/05/11 03:46:49;;;;;;;9.60;2.78;;;15.10;96.10;;;;;;7398802;19;19926;-72
2023/05/11 03:49:17;;;;;;;9.88;2.63;;;15.10;95.80;;;;;;7398045;19;19914;-72
2023/05/11 03:51:43;;;;;;;11.25;2.35;;;15.10;95.20;;;;;;7406746;19;19922;-73
2023/05/11 03:54:10;;;;;;;16.10;2.70;;;15.10;95.10;;;;;;7403090;19;20343;-72
2023/05/11 03:56:38;;;;;;;10.82;2.20;;;15.00;95.20;;;;;;7404219;19;19922;-72
2023/05/11 03:59:05;;;;;;;11.77;2.38;;;15.00;95.10;;;;;;7404804;19;19958;-72
2023/05/11 04:01:34;;;;;;;13.05;2.88;;;15.00;94.80;;;;;;7405919;19;19996;-73
2023/05/11 04:03:59;;;;;;;10.80;2.78;;;15.00;94.40;;;;;;7405105;19;19914;-72
2023/05/11 04:06:25;;;;;;;6.10;1.67;;;14.90;94.60;;;;;;7400065;19;19922;-73
2023/05/11 04:08:51;;;;;;;9.90;1.65;;;14.90;94.50;;;;;;7406121;19;20255;-72
2023/05/11 04:11:17;;;;;;;10.10;2.70;;;14.80;94.30;;;;;;7397404;19;20243;-73
2023/05/11 04:13:42;;;;;;;10.45;1.83;;;14.80;94.20;;;;;;7405712;19;19911;-72
2023/05/11 04:16:08;;;;;;;8.05;1.80;;;14.70;93.80;;;;;;7403072;19;19922;-72
2023/05/11 04:18:34;;;;;;;7.80;2.35;;;14.70;93.20;;;;;;7405152;19;20342;-73
2023/05/11 04:21:00;;;;;;;10.85;1.67;;;14.70;92.70;;;;;;7405540;19;20307;-72
2023/05/11 04:23:26;;;;;;;6.18;1.33;;;14.70;92.00;;;;;;7403461;19;19970;-72
2023/05/11 04:25:53;;;;;;;8.30;1.85;;;14.70;91.40;;;;;;7403551;19;20560;-72
2023/05/11 04:28:20;;;;;;;10.88;1.50;;;14.60;91.00;;;;;;7401302;19;19947;-73
2023/05/11 04:30:55;;;;;;;7.82;1.30;;;14.60;90.60;;;;;;7404689;19;20244;-73
2023/05/11 04:33:21;;;;;;;6.10;1.58;;;14.60;90.20;;;;;;7401098;19;19958;-72
2023/05/11 04:35:52;;;;;;;9.07;2.00;;;14.60;89.70;;;;;;7405314;19;19918;-72
2023/05/11 04:38:19;;;;;;;7.60;1.58;;;14.50;89.50;;;;;;7396345;19;20335;-72
2023/05/11 04:40:46;;;;;;;;;;;14.50;88.80;;;;;;7404786;19;19930;-72
2023/05/11 04:43:12;;;;;;;5.05;1.58;;;14.50;87.80;;;;;;7401283;19;19951;-72
2023/05/11 04:45:38;;;;;;;6.82;1.52;;;14.50;87.00;;;;;;7403623;19;19922;-72
2023/05/11 04:48:05;;;;;;;4.78;1.13;;;14.50;86.30;;;;;;7399442;19;20019;-72
2023/05/11 04:50:31;;;;;;;4.82;1.15;;;14.50;85.90;;;;;;7402897;19;19974;-73
2023/05/11 04:52:57;;;;;;;8.77;1.55;;;14.50;84.80;;;;;;7402008;19;19921;-73
2023/05/11 04:55:23;;;;;;;7.45;1.15;;;14.50;84.30;;;;;;7400234;19;19930;-72
2023/05/11 04:57:48;;;;;;;4.05;1.05;;;14.60;84.10;;;;;;7397559;19;19925;-72
2023/05/11 05:00:14;;;;;;;7.53;1.30;;;14.60;83.10;;;;;;7402275;19;20018;-72
2023/05/11 05:02:40;;;;;;;8.20;1.60;;;14.70;83.00;;;;;;7402767;19;19911;-72
2023/05/11 05:05:06;;;;;;;5.72;1.38;;;14.70;82.10;;;;;;7397862;19;19923;-72
2023/05/11 05:07:32;;;;;;;6.78;0.93;;;14.70;82.90;;;;;;7382379;19;20267;-73
2023/05/11 05:09:57;;;;;;;6.40;1.17;;;14.90;82.80;;;;;;7404600;19;19956;-72
2023/05/11 05:12:23;;;;;;;7.00;1.50;;;14.90;81.90;;;;;;7402314;19;19932;-72
2023/05/11 05:14:49;;;;;;;9.13;2.47;;;15.00;80.90;;;;;;7368986;19;19910;-73
2023/05/11 05:17:15;;;;;;;5.30;0.93;;;15.10;80.60;;;;;;7399976;19;19923;-73
2023/05/11 05:19:40;;;;;;;9.63;1.55;;;15.20;80.10;;;;;;7404268;19;19932;-72
2023/05/11 05:22:06;;;;;;;7.03;1.92;;;15.20;79.80;;;;;;7402046;19;19978;-74
2023/05/11 05:24:32;;;;;;;8.27;1.38;;;15.20;80.00;;;;;;7402788;19;19987;-72
2023/05/11 05:26:58;;;;;;;6.60;1.20;;;15.20;79.60;;;;;;7403195;19;19915;-72
2023/05/11 05:29:24;;;;;;;8.70;1.30;;;15.20;79.40;;;;;;7399256;19;19914;-73
2023/05/11 05:31:50;;;;;;;5.00;0.90;;;15.20;79.40;;;;;;7402821;19;19921;-74
2023/05/11 05:34:15;;;;;;;6.10;1.48;;;15.20;79.80;;;;;;7400650;19;20732;-72
2023/05/11 05:36:41;;;;;;;5.75;0.80;;;15.30;78.60;;;;;;7403978;19;19925;-72
2023/05/11 05:39:09;;;;;;;5.28;1.00;;;15.20;77.30;;;;;;7401052;19;20017;-73
2023/05/11 05:41:35;;;;;;;4.85;1.60;;;15.20;77.30;;;;;;7403066;19;19925;-72
2023/05/11 05:44:01;;;;;;;5.28;1.10;;;15.10;76.70;;;;;;7400042;19;20292;-73
2023/05/11 05:46:27;;;;;;;4.90;0.95;;;15.10;76.10;;;;;;7400418;19;20343;-72
2023/05/11 05:48:53;;;;;;;4.25;1.00;;;15.10;75.50;;;;;;7402787;19;19925;-73
2023/05/11 05:51:19;;;;;;;3.55;0.90;;;15.10;74.60;;;;;;7400442;19;19910;-73
2023/05/11 05:53:45;;;;;;;5.00;1.60;;;15.10;74.10;;;;;;7402728;19;19925;-71
2023/05/11 05:56:11;;;;;;;6.40;1.10;;;15.10;74.10;;;;;;7401157;19;19994;-72
2023/05/11 05:58:36;;;;;;;5.68;1.20;;;15.10;74.00;;;;;;7401994;19;20332;-73
2023/05/11 06:01:02;;;;;;;5.65;0.90;;;15.10;74.10;;;;;;7401985;19;20031;-73
2023/05/11 06:03:28;;;;;;;9.13;1.10;;;15.20;73.80;;;;;;7401346;19;19931;-73
2023/05/11 06:05:54;;;;;;;6.63;1.25;;;15.10;74.10;;;;;;7398101;19;19958;-73
2023/05/11 06:08:19;;;;;;;5.70;1.10;;;15.10;74.10;;;;;;7367188;19;19921;-73
2023/05/11 06:10:45;;;;;;;4.82;0.75;;;15.10;74.00;;;;;;7399526;19;19914;-72
2023/05/11 06:13:11;;;;;;;3.05;1.20;;;15.10;73.50;;;;;;7398225;19;19945;-72
2023/05/11 06:15:37;;;;;;;4.60;0.60;;;15.10;73.20;;;;;;7401652;19;19914;-73
2023/05/11 06:18:03;;;;;;;5.22;1.33;;;15.10;73.30;;;;;;7400863;19;19946;-73
2023/05/11 06:20:30;;;;;;;6.20;1.13;;;15.10;72.50;;;;;;7402294;19;19954;-72
2023/05/11 06:22:56;;;;;;;5.78;1.25;;;15.10;72.30;;;;;;7398790;19;19918;-72
2023/05/11 06:25:22;;;;;;;7.25;1.73;;;15.30;72.60;;;;;;7400678;19;20018;-73
2023/05/11 06:27:47;;;;;;;6.80;0.90;;;15.30;71.90;;;;;;7401222;19;20365;-72
2023/05/11 06:30:13;;;;;;;6.72;1.38;;;15.20;72.70;;;;;;7398012;19;20377;-73
2023/05/11 06:32:39;;;;;;;5.35;1.08;;;15.30;73.00;;;;;;7397549;19;19918;-72
2023/05/11 06:35:05;;;;;;;7.55;1.02;;;15.30;72.80;;;;;;7376731;19;20395;-73
2023/05/11 06:37:31;;;;;;;6.57;1.52;;;15.40;73.40;;;;;;7398590;19;19933;-73
2023/05/11 06:39:58;;;;;;;6.38;0.93;;;15.30;72.80;;;;;;7400285;19;19915;-73
2023/05/11 06:42:24;;;;;;;8.63;1.42;;;15.30;73.10;;;;;;7400089;19;19931;-72
2023/05/11 06:44:49;;;;;;;5.30;1.17;;;15.30;72.20;;;;;;7397721;19;19926;-72
2023/05/11 06:47:15;;;;;;;4.53;1.60;;;15.40;71.80;;;;;;7396119;19;19915;-72
2023/05/11 06:49:41;;;;;;;4.13;1.13;;;15.50;71.90;;;;;;7400386;19;20240;-72
2023/05/11 06:52:08;;;;;;;7.65;1.10;;;15.50;72.30;;;;;;7398132;19;19926;-71
2023/05/11 06:54:34;;;;;;;6.82;0.75;;;15.60;72.50;;;;;;7401356;19;20048;-72
2023/05/11 06:57:00;;;;;;;5.95;1.45;;;15.60;72.20;;;;;;7397670;19;20408;-74
2023/05/11 06:59:26;;;;;;;4.38;1.27;;;15.70;71.60;;;;;;7399861;19;19918;-72
2023/05/11 07:01:52;;;;;;;6.72;1.10;;;15.70;71.20;;;;;;7402319;19;20335;-74
2023/05/11 07:04:18;;;;;;;5.07;1.20;;;15.60;70.90;;;;;;7398473;19;19918;-74
2023/05/11 07:06:43;;;;;;;6.95;1.00;;;15.60;71.40;;;;;;7398496;19;19948;-73
2023/05/11 07:09:09;;;;;;;6.15;1.63;;;15.60;71.10;;;;;;7398844;19;19970;-74
2023/05/11 07:11:35;;;;;;;4.78;1.08;;;15.70;70.80;;;;;;7398003;19;20387;-72
2023/05/11 07:14:01;;;;;;;4.75;0.90;;;15.80;70.40;;;;;;7399820;19;19938;-72
2023/05/11 07:16:27;;;;;;;3.70;1.00;;;15.90;69.80;;;;;;7393045;19;19945;-72
2023/05/11 07:18:52;;;;;;;4.13;1.02;;;15.90;69.80;;;;;;7397402;19;20283;-72
2023/05/11 07:21:20;;;;;;;6.30;1.13;;;15.90;70.40;;;;;;7398155;19;20330;-72
2023/05/11 07:23:46;;;;;;;5.15;1.00;;;15.90;71.00;;;;;;7397961;19;19915;-74
2023/05/11 07:26:12;;;;;;;6.30;1.23;;;15.80;71.10;;;;;;7404551;19;20022;-74
2023/05/11 07:28:38;;;;;;;5.88;1.10;;;15.80;71.30;;;;;;7404946;19;19910;-73
2023/05/11 07:31:04;;;;;;;5.95;1.08;;;16.00;71.70;;;;;;7403080;19;20446;-74
2023/05/11 07:33:32;;;;;;;5.57;0.93;;;16.10;71.60;;;;;;7405764;19;19918;-73
2023/05/11 07:35:58;;;;;;;5.60;1.20;;;16.10;72.40;;;;;;7404532;19;19924;-73
2023/05/11 07:38:23;;;;;;;5.25;1.40;;;16.10;72.60;;;;;;7404697;19;19949;-73
2023/05/11 07:40:49;;;;;;;6.50;1.42;;;16.30;72.50;;;;;;7373220;19;20323;-72
2023/05/11 07:43:15;;;;;;;6.72;1.60;;;16.50;73.30;;;;;;7406018;19;19927;-79
2023/05/11 07:45:41;;;;;;;7.53;1.50;;;16.70;74.90;;;;;;7401071;19;19919;-73
2023/05/11 07:48:06;;;;;;;7.43;1.20;;;17.00;73.70;;;;;;7400614;19;19915;-74
2023/05/11 07:50:32;;;;;;;6.03;2.03;;;17.20;73.30;;;;;;7405365;19;19906;-76
2023/05/11 07:52:58;;;;;;;10.52;1.77;;;17.40;72.70;;;;;;7407196;19;19919;-74
2023/05/11 07:55:23;;;;;;;6.47;1.65;;;17.60;72.70;;;;;;7400427;19;20840;-75
2023/05/11 07:57:51;;;;;;;6.13;1.23;;;17.70;73.90;;;;;;7409158;19;20053;-75
2023/05/11 08:00:18;;;;;;;6.90;1.13;;;17.80;74.50;;;;;;7400457;19;19922;-74
2023/05/11 08:02:44;;;;;;;11.30;1.80;;;17.90;74.30;;;;;;7399554;19;20517;-74
2023/05/11 08:05:10;;;;;;;8.80;1.48;;;18.30;74.20;;;;;;7401280;19;19947;-74
2023/05/11 08:07:36;;;;;;;7.68;1.50;;;18.40;73.40;;;;;;7405190;19;19929;-75
2023/05/11 08:10:01;;;;;;;8.63;1.73;;;18.10;73.90;;;;;;7396138;19;19978;-75
2023/05/11 08:12:27;;;;;;;7.35;2.15;;;17.80;74.80;;;;;;7404902;19;19913;-75
2023/05/11 08:14:54;;;;;;;4.63;1.35;;;17.80;75.20;;;;;;7405555;19;20773;-74
2023/05/11 08:17:20;;;;;;;5.97;1.25;;;17.90;75.60;;;;;;7404456;19;19930;-75
2023/05/11 08:19:45;;;;;;;8.32;1.90;;;18.00;74.80;;;;;;7406105;19;19911;-74
2023/05/11 08:22:11;;;;;;;6.07;1.55;;;18.00;74.70;;;;;;7402519;19;19919;-76
2023/05/11 08:24:37;;;;;;;5.72;1.15;;;17.90;74.80;;;;;;7401534;19;19907;-74
2023/05/11 08:27:03;;;;;;;6.72;1.52;;;18.10;74.80;;;;;;7401137;19;19917;-74
2023/05/11 08:29:30;;;;;;;7.95;1.35;;;18.30;73.90;;;;;;7401081;19;19919;-74
2023/05/11 08:31:57;;;;;;;5.47;1.67;;;18.40;74.50;;;;;;7406395;19;20235;-74
2023/05/11 08:34:23;;;;;;;5.70;1.50;;;18.60;74.20;;;;;;7397843;19;20316;-75
2023/05/11 08:36:49;;;;;;;8.18;1.25;;;18.40;74.10;;;;;;7395031;19;20638;-75
2023/05/11 08:39:15;;;;;;;5.28;1.25;;;18.40;74.40;;;;;;7397943;19;19929;-75
2023/05/11 08:41:42;;;;;;;7.82;1.45;;;18.50;75.40;;;;;;7397572;19;19970;-75
2023/05/11 08:44:09;;;;;;;63.65;33.15;;;18.50;76.40;;;;;;7389478;19;19916;-74
2023/05/11 08:46:38;;;;;;;;;;;18.70;76.10;;;;;;7400872;19;19943;-74
2023/05/11 08:49:06;;;;;;;5.72;1.30;;;18.70;75.90;;;;;;7405279;19;20339;-75
2023/05/11 08:51:32;;;;;;;8.18;1.48;;;18.50;76.30;;;;;;7401578;19;19954;-75
2023/05/11 08:53:59;;;;;;;6.40;1.80;;;18.40;76.80;;;;;;7402134;19;19986;-75
2023/05/11 08:56:26;;;;;;;6.13;1.55;;;18.00;77.70;;;;;;7397029;19;19929;-76
2023/05/11 08:58:54;;;;;;;6.38;1.83;;;17.90;77.90;;;;;;7397313;19;20324;-75
2023/05/11 09:01:22;;;;;;;4.43;1.20;;;18.00;78.70;;;;;;7366170;19;19918;-74
2023/05/11 09:03:49;;;;;;;9.55;1.65;;;18.00;78.40;;;;;;7396810;19;20271;-74
2023/05/11 09:06:16;;;;;;;8.57;1.70;;;17.70;79.00;;;;;;7400886;19;19933;-76
2023/05/11 09:08:43;;;;;;;6.57;1.42;;;17.50;80.00;;;;;;7398584;19;19926;-73
2023/05/11 09:11:10;;;;;;;6.80;1.55;;;17.20;80.90;;;;;;7390954;19;19910;-74
2023/05/11 09:13:35;;;;;;;7.72;1.27;;;17.40;81.00;;;;;;7399178;19;20303;-74
2023/05/11 09:16:01;;;;;;;8.23;1.48;;;17.60;80.40;;;;;;7397968;19;19918;-74
2023/05/11 09:18:27;;;;;;;7.65;2.05;;;17.70;80.30;;;;;;7404813;19;19924;-74
2023/05/11 09:20:53;;;;;;;5.63;1.58;;;17.60;80.40;;;;;;7401368;19;19932;-74
2023/05/11 09:23:25;;;;;;;6.75;1.45;;;17.50;80.50;;;;;;7390334;19;19910;-74
2023/05/11 09:25:51;;;;;;;6.30;1.38;;;17.60;80.60;;;;;;7396186;19;19929;-75
2023/05/11 09:28:24;;;;;;;7.18;1.50;;;17.70;80.50;;;;;;7360432;19;19919;-75
2023/05/11 09:30:50;;;;;;;;;;;17.70;79.80;;;;;;7369751;19;20370;-73
2023/05/11 09:33:23;;;;;;;7.72;1.30;;;17.50;79.90;;;;;;7368202;19;19985;-74
2023/05/11 09:35:49;;;;;;;8.55;2.00;;;17.40;80.10;;;;;;7403759;19;19927;-74
2023/05/11 09:38:18;;;;;;;9.15;1.50;;;17.50;80.30;;;;;;7399929;19;19919;-74
2023/05/11 09:40:52;;;;;;;4.75;1.20;;;17.30;81.00;;;;;;7400223;19;19922;-74
2023/05/11 09:43:29;;;;;;;6.38;1.50;;;16.90;81.80;;;;;;7401446;19;19907;-74
2023/05/11 09:46:00;;;;;;;8.52;1.80;;;16.60;83.70;;;;;;7403065;19;19915;-74
2023/05/11 09:48:34;;;;;;;7.10;1.60;;;16.80;83.10;;;;;;7378942;19;19938;-74
2023/05/11 09:51:05;;;;;;;10.35;1.60;;;16.80;83.00;;;;;;7402453;19;19988;-74
2023/05/11 09:53:43;;;;;;;4.85;1.00;;;17.00;81.00;;;;;;7398552;19;19986;-74
2023/05/11 09:56:09;;;;;;;7.25;1.27;;;17.20;80.50;;;;;;7379446;19;19959;-74
2023/05/11 09:58:50;;;;;;;11.00;1.80;;;17.30;80.90;;;;;;7399293;19;19946;-74
2023/05/11 10:01:18;;;;;;;6.35;1.73;;;17.40;81.00;;;;;;7401301;19;19960;-74
2023/05/11 10:03:52;;;;;;;8.70;1.70;;;17.40;80.90;;;;;;7401813;19;19922;-74
2023/05/11 10:06:22;;;;;;;5.35;1.50;;;17.60;80.80;;;;;;7400908;19;19911;-73
2023/05/11 10:08:51;;;;;;;6.50;1.60;;;17.50;80.30;;;;;;7400467;19;19918;-74
2023/05/11 10:11:21;;;;;;;5.55;0.95;;;17.60;79.90;;;;;;7398918;19;20037;-75
2023/05/11 10:13:47;;;;;;;7.18;1.75;;;17.60;79.60;;;;;;7401946;19;19952;-74
2023/05/11 10:16:15;;;;;;;7.68;1.65;;;17.70;79.40;;;;;;7399774;19;19953;-73
2023/05/11 10:18:42;;;;;;;7.68;1.13;;;17.90;78.60;;;;;;7405607;19;19922;-74
2023/05/11 10:21:09;;;;;;;;;;;18.10;77.50;;;;;;7396878;19;19986;-74
2023/05/11 10:23:35;;;;;;;9.82;1.83;;;18.30;76.90;;;;;;7372780;19;19911;-74
2023/05/11 10:26:04;;;;;;;6.22;1.30;;;18.80;77.40;;;;;;7382394;19;19926;-74
2023/05/11 10:28:30;;;;;;;9.60;1.50;;;20.50;71.60;;;;;;7392350;19;20689;-74
2023/05/11 10:30:57;;;;;;;5.22;1.30;;;21.80;68.10;;;;;;7366975;19;19915;-73
2023/05/11 10:33:23;;;;;;;5.43;0.95;;;21.80;66.80;;;;;;7365756;19;19914;-74
2023/05/11 10:35:51;;;;;;;6.28;1.67;;;22.10;66.60;;;;;;7396590;19;19910;-74
2023/05/11 10:38:20;;;;;;;7.68;1.65;;;22.50;66.10;;;;;;7363807;19;19948;-73
2023/05/11 10:40:47;;;;;;;9.98;1.88;;;21.80;64.80;;;;;;7399873;19;19952;-73
2023/05/11 10:43:24;;;;;;;8.65;2.38;;;22.50;65.60;;;;;;7395851;19;19929;-74
2023/05/11 10:46:11;;;;;;;7.45;1.90;;;22.10;64.40;;;;;;7394867;19;19966;-73
2023/05/11 10:48:46;;;;;;;6.18;1.83;;;22.50;64.80;;;;;;7393572;19;19922;-73
2023/05/11 10:51:30;;;;;;;5.95;1.73;;;23.00;62.80;;;;;;7397848;19;20339;-74
2023/05/11 10:54:28;;;;;;;8.20;2.75;;;23.50;62.80;;;;;;7388726;19;19931;-74
2023/05/11 10:56:54;;;;;;;6.75;1.58;;;24.00;61.50;;;;;;7366672;19;20331;-74
2023/05/11 10:59:29;;;;;;;9.27;1.83;;;23.90;60.60;;;;;;7390475;19;19946;-74
2023/05/11 11:01:57;;;;;;;7.20;2.00;;;23.10;60.90;;;;;;7395370;19;19919;-74
2023/05/11 11:04:23;;;;;;;8.95;1.70;;;22.00;63.70;;;;;;7397074;19;19945;-75
2023/05/11 11:07:04;;;;;;;7.25;1.55;;;23.00;62.90;;;;;;7400484;19;19919;-74
2023/05/11 11:09:49;;;;;;;8.38;1.85;;;23.10;61.80;;;;;;7363794;19;20283;-74
2023/05/11 11:12:15;;;;;;;7.53;1.63;;;23.60;61.00;;;;;;7400038;19;19922;-74
2023/05/11 11:15:13;;;;;;;6.10;1.70;;;22.50;61.50;;;;;;7395675;19;19915;-74
2023/05/11 11:17:39;;;;;;;8.45;2.25;;;22.20;62.90;;;;;;7393750;19;19925;-74
2023/05/11 11:20:07;;;;;;;8.10;1.60;;;22.50;62.90;;;;;;7382416;19;19915;-73
2023/05/11 11:22:37;;;;;;;7.45;2.03;;;22.50;63.30;;;;;;7392706;19;19952;-74
2023/05/11 11:25:07;;;;;;;7.88;3.17;;;22.20;63.40;;;;;;7391311;19;19922;-74
2023/05/11 11:27:39;;;;;;;8.55;1.65;;;22.20;63.40;;;;;;7392520;19;19974;-74
2023/05/11 11:30:24;;;;;;;10.80;1.88;;;21.70;65.10;;;;;;7367381;19;19950;-75
2023/05/11 11:32:55;;;;;;;8.93;1.85;;;20.70;67.50;;;;;;7394950;19;19919;-73
2023/05/11 11:35:39;;;;;;;10.35;2.50;;;20.00;69.40;;;;;;7369225;19;20442;-75
2023/05/11 11:38:23;;;;;;;7.65;1.55;;;21.50;67.40;;;;;;7395536;19;19938;-75
2023/05/11 11:40:53;;;;;;;7.88;1.63;;;21.60;64.90;;;;;;7395668;19;19914;-74
2023/05/11 11:43:22;;;;;;;6.20;1.83;;;21.70;64.60;;;;;;7393194;19;19982;-75
2023/05/11 11:46:01;;;;;;;8.00;1.92;;;21.90;65.20;;;;;;7392092;19;20372;-74
2023/05/11 11:48:30;;;;;;;6.20;1.50;;;20.80;67.70;;;;;;7399288;19;19914;-74
2023/05/11 11:51:05;;;;;;;9.45;2.17;;;21.20;67.00;;;;;;7397914;19;19911;-74
2023/05/11 11:53:39;;;;;;;4.82;1.60;;;21.40;67.30;;;;;;7393673;19;20200;-74
2023/05/11 11:56:14;;;;;;;8.10;1.88;;;22.30;64.60;;;;;;7392833;19;20397;-74
2023/05/11 11:58:43;;;;;;;7.28;1.70;;;22.30;63.50;;;;;;7398133;19;19929;-74
2023/05/11 12:01:34;;;;;;;7.00;1.88;;;21.50;66.30;;;;;;7394609;19;19919;-74
2023/05/11 12:04:03;;;;;;;8.30;2.17;;;21.30;67.20;;;;;;7393446;19;19953;-75
2023/05/11 12:06:36;;;;;;;9.30;2.00;;;22.00;65.80;;;;;;7392940;19;19929;-74
2023/05/11 12:09:03;;;;;;;7.68;2.08;;;21.70;66.60;;;;;;7388172;19;20015;-74
2023/05/11 12:11:30;;;;;;;6.97;1.42;;;21.30;66.50;;;;;;7387363;19;20366;-73
2023/05/11 12:14:00;;;;;;;6.10;1.55;;;21.40;66.90;;;;;;7404492;19;20296;-75
2023/05/11 12:16:27;;;;;;;7.68;1.92;;;22.40;64.10;;;;;;7394344;19;19915;-74
2023/05/11 12:18:58;;;;;;;9.45;2.13;;;23.10;63.10;;;;;;7387475;19;20006;-73
2023/05/11 12:21:27;;;;;;;9.13;2.05;;;23.90;61.80;;;;;;7366597;19;19911;-75
2023/05/11 12:24:01;;;;;;;7.93;2.03;;;24.10;61.10;;;;;;7397864;19;19910;-73
2023/05/11 12:26:30;;;;;;;7.70;2.05;;;23.80;61.20;;;;;;7396348;19;19910;-73
2023/05/11 12:29:13;;;;;;;7.13;2.05;;;23.40;61.90;;;;;;7393754;19;19928;-73
2023/05/11 12:31:45;;;;;;;16.52;2.65;;;23.20;63.60;;;;;;7396035;19;19938;-72
2023/05/11 12:34:21;;;;;;;8.50;2.95;;;22.90;63.60;;;;;;7394985;19;20256;-73
2023/05/11 12:36:49;;;;;;;7.32;2.25;;;21.70;66.40;;;;;;7391683;19;19923;-73
2023/05/11 12:39:25;;;;;;;6.30;1.73;;;22.40;65.40;;;;;;7388108;19;19926;-73
2023/05/11 12:41:53;;;;;;;8.10;2.10;;;22.30;64.60;;;;;;7394054;19;19924;-73
2023/05/11 12:44:21;;;;;;;9.45;2.35;;;20.90;68.50;;;;;;7392711;19;19922;-73
2023/05/11 12:46:48;;;;;;;7.53;2.15;;;21.80;66.10;;;;;;7398632;19;19927;-73
2023/05/11 12:49:22;;;;;;;8.80;1.67;;;22.70;65.00;;;;;;7391178;19;19950;-74
2023/05/11 12:52:06;;;;;;;6.60;2.10;;;22.40;64.40;;;;;;7393685;19;19941;-74